createdAt,value
2022-11-03T00:01:39.001Z,5.10
2022-11-03T00:04:09.053Z,5.30
2022-11-03T00:06:37.942Z,5.50
2022-11-03T00:09:10.045Z,5.50
2022-11-03T00:11:40.556Z,5.60
2022-11-03T00:14:10.395Z,5.80
2022-11-03T00:16:41.041Z,5.80
2022-11-03T00:19:11.559Z,5.90
2022-11-03T00:21:39.907Z,5.80
2022-11-03T00:24:09.478Z,5.80
2022-11-03T00:26:38.229Z,5.80
2022-11-03T00:29:10.263Z,6.00
2022-11-03T00:31:42.214Z,6.10
2022-11-03T00:34:11.111Z,6.20
2022-11-03T00:36:42.024Z,6.40
2022-11-03T00:39:10.543Z,6.60
2022-11-03T00:41:39.837Z,6.50
2022-11-03T00:44:10.319Z,6.40
2022-11-03T00:46:40.188Z,6.50
2022-11-03T00:49:08.280Z,6.60
2022-11-03T00:51:36.867Z,6.50
2022-11-03T00:54:07.388Z,6.40
2022-11-03T00:56:38.286Z,6.30
2022-11-03T00:59:08.483Z,6.30
2022-11-03T01:01:45.726Z,6.30
2022-11-03T01:04:34.103Z,6.50
2022-11-03T01:07:03.073Z,6.70
2022-11-03T01:09:36.111Z,6.70
2022-11-03T01:12:08.083Z,6.60
2022-11-03T01:14:39.359Z,6.60
2022-11-03T01:17:11.058Z,6.60
2022-11-03T01:19:39.168Z,6.60
2022-11-03T01:22:11.179Z,6.60
2022-11-03T01:24:40.431Z,6.60
2022-11-03T01:27:09.212Z,6.50
2022-11-03T01:29:37.464Z,6.50
2022-11-03T01:32:06.398Z,6.50
2022-11-03T01:34:37.088Z,6.60
2022-11-03T01:37:07.139Z,6.60
2022-11-03T01:39:35.677Z,6.60
2022-11-03T01:42:05.595Z,6.50
2022-11-03T01:44:37.498Z,6.50
2022-11-03T01:47:20.516Z,6.40
2022-11-03T01:49:55.436Z,6.30
2022-11-03T01:52:31.666Z,6.30
2022-11-03T01:55:06.025Z,6.30
2022-11-03T01:57:40.909Z,6.30
2022-11-03T02:00:10.971Z,6.30
2022-11-03T02:02:39.170Z,6.50
2022-11-03T02:05:11.960Z,6.50
2022-11-03T02:07:48.387Z,6.70
2022-11-03T02:10:16.700Z,6.70
2022-11-03T02:12:45.316Z,6.80
2022-11-03T02:15:16.980Z,6.80
2022-11-03T02:17:48.495Z,6.90
2022-11-03T02:20:22.072Z,7.00
2022-11-03T02:23:18.400Z,7.00
2022-11-03T02:25:51.228Z,7.00
2022-11-03T02:28:23.335Z,7.10
2022-11-03T02:31:03.683Z,7.20
2022-11-03T02:33:43.381Z,7.00
2022-11-03T02:36:20.982Z,7.10
2022-11-03T02:38:58.394Z,7.10
2022-11-03T02:41:31.299Z,7.00
2022-11-03T02:44:01.714Z,7.00
2022-11-03T02:46:33.855Z,7.00
2022-11-03T02:49:02.037Z,7.00
2022-11-03T02:51:30.067Z,7.00
2022-11-03T02:54:07.791Z,7.00
2022-11-03T02:56:44.255Z,7.10
2022-11-03T02:59:18.999Z,6.90
2022-11-03T03:01:55.496Z,6.90
2022-11-03T03:04:30.363Z,6.80
2022-11-03T03:07:03.285Z,6.80
2022-11-03T03:09:41.984Z,7.00
2022-11-03T03:12:13.254Z,6.90
2022-11-03T03:14:46.091Z,7.00
2022-11-03T03:17:24.196Z,7.00
2022-11-03T03:20:04.667Z,7.00
2022-11-03T03:22:41.185Z,6.90
2022-11-03T03:25:17.549Z,7.00
2022-11-03T03:27:52.793Z,6.80
2022-11-03T03:30:21.818Z,6.90
2022-11-03T03:32:53.418Z,6.90
2022-11-03T03:35:27.907Z,7.00
2022-11-03T03:38:03.590Z,6.90
2022-11-03T03:40:37.556Z,6.80
2022-11-03T03:43:12.672Z,6.90
2022-11-03T03:45:42.637Z,6.90
2022-11-03T03:48:10.869Z,6.90
2022-11-03T03:50:43.551Z,6.90
2022-11-03T03:53:14.040Z,6.90
2022-11-03T03:55:45.613Z,6.90
2022-11-03T03:58:16.984Z,7.00
2022-11-03T04:00:45.760Z,7.00
2022-11-03T04:03:18.654Z,7.00
2022-11-03T04:05:47.847Z,6.90
2022-11-03T04:08:17.799Z,6.90
2022-11-03T04:11:07.493Z,7.00
2022-11-03T04:13:54.192Z,6.90
2022-11-03T04:16:39.949Z,7.00
2022-11-03T04:19:28.258Z,7.00
2022-11-03T04:22:14.131Z,7.00
2022-11-03T04:24:42.193Z,7.00
2022-11-03T04:27:28.607Z,7.00
2022-11-03T04:30:03.602Z,7.10
2022-11-03T04:32:31.989Z,7.20
2022-11-03T04:35:01.358Z,7.30
2022-11-03T04:37:29.824Z,7.20
2022-11-03T04:40:01.499Z,7.20
2022-11-03T04:42:34.502Z,7.10
2022-11-03T04:45:15.665Z,7.00
2022-11-03T04:47:43.686Z,6.90
2022-11-03T04:50:20.481Z,6.70
2022-11-03T04:52:48.759Z,6.70
2022-11-03T04:55:19.778Z,6.70
2022-11-03T04:57:48.887Z,6.70
2022-11-03T05:00:20.623Z,6.70
2022-11-03T05:02:55.904Z,6.60
2022-11-03T05:05:27.296Z,6.60
2022-11-03T05:07:59.379Z,6.60
2022-11-03T05:10:30.725Z,6.60
2022-11-03T05:13:01.581Z,6.60
2022-11-03T05:15:38.011Z,6.70
2022-11-03T05:18:19.693Z,6.80
2022-11-03T05:20:52.867Z,6.80
2022-11-03T05:23:23.722Z,6.80
2022-11-03T05:25:55.014Z,6.90
2022-11-03T05:28:27.636Z,7.00
2022-11-03T05:30:57.901Z,6.90
2022-11-03T05:33:33.157Z,6.90
2022-11-03T05:36:09.493Z,6.90
2022-11-03T05:38:37.533Z,6.80
2022-11-03T05:41:15.981Z,6.80
2022-11-03T05:43:44.105Z,6.90
2022-11-03T05:46:15.891Z,7.00
2022-11-03T05:48:45.042Z,7.00
2022-11-03T05:51:22.515Z,7.00
2022-11-03T05:53:56.734Z,7.00
2022-11-03T05:56:26.652Z,6.90
2022-11-03T05:58:57.321Z,6.90
2022-11-03T06:01:33.614Z,7.00
2022-11-03T06:04:13.624Z,7.00
2022-11-03T06:06:42.339Z,6.90
2022-11-03T06:09:17.496Z,6.90
2022-11-03T06:11:47.118Z,6.90
2022-11-03T06:14:23.991Z,6.80
2022-11-03T06:16:58.818Z,6.80
2022-11-03T06:19:31.303Z,6.90
2022-11-03T06:22:06.980Z,7.00
2022-11-03T06:24:35.909Z,6.90
2022-11-03T06:27:04.682Z,6.80
2022-11-03T06:29:34.769Z,6.60
2022-11-03T06:32:04.452Z,6.40
2022-11-03T06:34:42.933Z,6.30
2022-11-03T06:37:24.859Z,6.30
2022-11-03T06:40:01.072Z,6.30
2022-11-03T06:42:34.137Z,6.30
2022-11-03T06:45:13.907Z,6.40
2022-11-03T06:47:43.325Z,6.50
2022-11-03T06:50:25.592Z,6.60
2022-11-03T06:52:55.614Z,6.70
2022-11-03T06:55:27.786Z,6.70
2022-11-03T06:58:01.309Z,6.80
2022-11-03T07:00:34.848Z,6.80
2022-11-03T07:03:11.799Z,6.90
2022-11-03T07:05:41.240Z,6.80
2022-11-03T07:08:23.235Z,6.80
2022-11-03T07:10:58.209Z,6.80
2022-11-03T07:13:28.614Z,6.80
2022-11-03T07:15:56.813Z,7.00
2022-11-03T07:18:32.225Z,7.20
2022-11-03T07:21:16.333Z,7.40
2022-11-03T07:23:46.331Z,7.60
2022-11-03T07:26:15.424Z,7.80
2022-11-03T07:28:43.505Z,8.00
2022-11-03T07:31:19.936Z,8.10
2022-11-03T07:33:49.711Z,8.30
2022-11-03T07:36:23.578Z,8.40
2022-11-03T07:38:56.309Z,8.40
2022-11-03T07:41:34.002Z,8.40
2022-11-03T07:44:04.222Z,8.40
2022-11-03T07:46:32.314Z,8.40
2022-11-03T07:49:04.414Z,8.40
2022-11-03T07:51:34.754Z,8.50
2022-11-03T07:54:14.997Z,8.40
2022-11-03T07:56:49.828Z,8.50
2022-11-03T08:01:58.934Z,8.60
2022-11-03T08:04:32.799Z,8.70
2022-11-03T08:07:00.941Z,8.90
2022-11-03T08:09:29.024Z,9.00
2022-11-03T08:11:57.221Z,9.10
2022-11-03T08:14:25.402Z,9.30
2022-11-03T08:16:53.486Z,9.60
2022-11-03T08:19:21.582Z,9.70
2022-11-03T08:21:50.962Z,9.90
2022-11-03T08:24:18.981Z,10.30
2022-11-03T08:26:47.252Z,10.60
2022-11-03T08:29:17.515Z,10.60
2022-11-03T08:31:45.729Z,10.70
2022-11-03T08:34:13.900Z,10.90
2022-11-03T08:36:41.944Z,11.00
2022-11-03T08:39:11.443Z,11.20
2022-11-03T08:41:39.709Z,11.40
2022-11-03T08:44:07.775Z,11.40
2022-11-03T08:46:36.297Z,11.40
2022-11-03T08:49:04.533Z,11.40
2022-11-03T08:51:32.637Z,11.50
2022-11-03T08:54:01.782Z,11.60
2022-11-03T08:56:31.234Z,11.70
2022-11-03T08:58:59.291Z,11.80
2022-11-03T09:01:27.518Z,12.00
2022-11-03T09:03:55.837Z,12.20
2022-11-03T09:06:24.393Z,12.30
2022-11-03T09:11:41.868Z,12.50
2022-11-03T09:14:10.254Z,12.60
2022-11-03T09:16:38.397Z,12.70
2022-11-03T09:19:06.486Z,12.70
2022-11-03T09:21:34.587Z,12.70
2022-11-03T09:24:02.597Z,12.70
2022-11-03T09:26:30.856Z,12.80
2022-11-03T09:29:01.386Z,12.90
2022-11-03T09:31:29.944Z,13.20
2022-11-03T09:33:58.021Z,13.60
2022-11-03T09:36:26.142Z,13.70
2022-11-03T09:38:54.406Z,13.90
2022-11-03T09:41:44.297Z,14.00
2022-11-03T09:44:13.116Z,14.00
2022-11-03T09:46:41.320Z,14.00
2022-11-03T09:49:09.538Z,14.00
2022-11-03T09:51:37.741Z,14.00
2022-11-03T09:54:07.136Z,13.90
2022-11-03T09:56:38.156Z,13.80
2022-11-03T09:59:17.650Z,13.70
2022-11-03T10:01:49.841Z,13.50
2022-11-03T10:04:22.881Z,13.40
2022-11-03T10:06:51.160Z,13.20
2022-11-03T10:09:20.795Z,13.20
2022-11-03T10:11:49.579Z,13.00
2022-11-03T10:14:21.307Z,13.00
2022-11-03T10:16:57.486Z,13.00
2022-11-03T10:19:26.422Z,13.00
2022-11-03T10:21:54.844Z,12.90
2022-11-03T10:24:23.432Z,12.90
2022-11-03T10:26:54.649Z,13.00
2022-11-03T10:29:26.489Z,13.00
2022-11-03T10:31:58.681Z,13.00
2022-11-03T10:34:37.746Z,13.00
2022-11-03T10:37:21.009Z,13.00
2022-11-03T10:39:51.163Z,13.10
2022-11-03T10:42:23.417Z,13.10
2022-11-03T10:44:56.728Z,13.20
2022-11-03T10:47:35.487Z,13.30
2022-11-03T10:50:24.042Z,13.30
2022-11-03T10:52:53.366Z,13.40
2022-11-03T10:55:25.666Z,13.40
2022-11-03T10:57:56.616Z,13.50
2022-11-03T11:00:26.700Z,13.50
2022-11-03T11:03:01.290Z,13.80
2022-11-03T11:05:32.460Z,13.90
2022-11-03T11:08:02.561Z,14.10
2022-11-03T11:10:34.235Z,14.20
2022-11-03T11:13:25.839Z,14.40
2022-11-03T11:15:59.521Z,14.60
2022-11-03T11:19:11.850Z,14.90
2022-11-03T11:22:13.934Z,14.80
2022-11-03T11:25:03.418Z,14.70
2022-11-03T11:27:58.650Z,14.70
2022-11-03T11:31:25.371Z,14.90
2022-11-03T11:34:48.206Z,15.10
2022-11-03T11:37:38.347Z,15.40
2022-11-03T11:40:15.384Z,15.50
2022-11-03T11:43:26.820Z,15.40
2022-11-03T11:46:40.081Z,15.40
2022-11-03T11:49:19.222Z,15.20
2022-11-03T11:51:49.358Z,14.90
2022-11-03T11:54:22.657Z,14.80
2022-11-03T11:56:51.959Z,14.60
2022-11-03T11:59:25.788Z,14.60
2022-11-03T12:01:58.034Z,14.70
2022-11-03T12:04:31.992Z,15.00
2022-11-03T12:07:01.724Z,15.30
2022-11-03T12:09:31.316Z,15.60
2022-11-03T12:12:08.359Z,16.00
2022-11-03T12:14:39.204Z,16.10
2022-11-03T12:17:38.028Z,16.30
2022-11-03T12:20:39.848Z,16.50
2022-11-03T12:23:09.640Z,16.60
2022-11-03T12:25:40.340Z,16.80
2022-11-03T12:28:09.332Z,16.80
2022-11-03T12:30:40.338Z,16.70
2022-11-03T12:33:10.717Z,16.50
2022-11-03T12:35:40.538Z,16.40
2022-11-03T12:38:10.283Z,16.40
2022-11-03T12:40:38.498Z,16.30
2022-11-03T12:43:07.064Z,16.40
2022-11-03T12:45:35.758Z,16.20
2022-11-03T12:48:05.359Z,15.90
2022-11-03T12:50:33.647Z,15.50
2022-11-03T12:53:02.132Z,15.10
2022-11-03T12:55:31.898Z,14.90
2022-11-03T12:58:00.264Z,14.60
2022-11-03T13:00:32.257Z,14.40
2022-11-03T13:03:03.852Z,14.10
2022-11-03T13:05:32.025Z,13.90
2022-11-03T13:08:00.263Z,13.70
2022-11-03T13:10:28.389Z,13.30
2022-11-03T13:12:57.759Z,13.00
2022-11-03T13:15:25.807Z,12.80
2022-11-03T13:20:43.097Z,12.50
2022-11-03T13:23:11.823Z,12.50
2022-11-03T13:25:40.034Z,12.40
2022-11-03T13:28:09.555Z,12.50
2022-11-03T13:30:37.662Z,12.40
2022-11-03T13:33:05.957Z,12.30
2022-11-03T13:35:34.306Z,12.20
2022-11-03T13:38:02.386Z,12.20
2022-11-03T13:43:19.876Z,12.00
2022-11-03T13:45:48.109Z,12.00
2022-11-03T13:51:07.358Z,12.00
2022-11-03T13:56:23.961Z,11.90
2022-11-03T14:01:42.006Z,11.90
2022-11-03T14:06:58.593Z,11.80
2022-11-03T14:09:26.970Z,11.80
2022-11-03T14:12:12.834Z,11.90
2022-11-03T14:14:42.586Z,11.80
2022-11-03T14:17:10.862Z,11.80
2022-11-03T14:19:44.824Z,11.80
2022-11-03T14:22:15.508Z,11.70
2022-11-03T14:24:44.024Z,11.70
2022-11-03T14:27:12.777Z,11.70
2022-11-03T14:29:43.427Z,11.70
2022-11-03T14:32:11.547Z,11.70
2022-11-03T14:34:39.896Z,11.70
2022-11-03T14:37:09.077Z,11.70
2022-11-03T14:39:37.786Z,11.70
2022-11-03T14:42:05.796Z,11.70
2022-11-03T14:44:35.828Z,11.60
2022-11-03T14:47:07.919Z,11.70
2022-11-03T14:49:37.532Z,11.70
2022-11-03T14:52:08.159Z,11.70
2022-11-03T14:54:37.324Z,11.70
2022-11-03T14:57:06.124Z,11.70
2022-11-03T14:59:35.237Z,11.70
2022-11-03T15:02:05.827Z,11.70
2022-11-03T15:04:34.672Z,11.70
2022-11-03T15:07:02.795Z,11.70
2022-11-03T15:09:30.876Z,11.70
2022-11-03T15:11:59.032Z,11.70
2022-11-03T15:14:27.071Z,11.70
2022-11-03T15:16:55.120Z,11.70
2022-11-03T15:19:24.496Z,11.70
2022-11-03T15:21:52.512Z,11.70
2022-11-03T15:27:08.537Z,11.70
2022-11-03T15:29:37.528Z,11.70
2022-11-03T15:32:06.883Z,11.80
2022-11-03T15:34:36.516Z,11.80
2022-11-03T15:37:04.539Z,11.80
2022-11-03T15:39:32.627Z,11.90
2022-11-03T15:42:00.698Z,11.90
2022-11-03T15:44:28.750Z,11.80
2022-11-03T15:46:56.873Z,11.70
2022-11-03T15:49:25.040Z,11.70
2022-11-03T15:51:54.657Z,11.70
2022-11-03T15:54:22.716Z,11.60
2022-11-03T15:56:51.026Z,11.60
2022-11-03T15:59:19.131Z,11.70
2022-11-03T16:01:47.345Z,11.60
2022-11-03T16:04:16.635Z,11.60
2022-11-03T16:09:34.518Z,11.50
2022-11-03T16:12:02.810Z,11.50
2022-11-03T16:14:31.179Z,11.50
2022-11-03T16:16:59.559Z,11.50
2022-11-03T16:19:27.590Z,11.50
2022-11-03T16:21:55.577Z,11.50
2022-11-03T16:24:29.618Z,11.50
2022-11-03T16:27:04.872Z,11.50
2022-11-03T16:29:33.043Z,11.50
2022-11-03T16:32:01.151Z,11.50
2022-11-03T16:34:29.465Z,11.60
2022-11-03T16:36:57.509Z,11.60
2022-11-03T16:39:25.619Z,11.60
2022-11-03T16:41:54.940Z,11.50
2022-11-03T16:44:24.437Z,11.60
2022-11-03T16:46:52.877Z,11.60
2022-11-03T16:49:21.033Z,11.60
2022-11-03T16:51:49.527Z,11.50
2022-11-03T16:54:17.593Z,11.60
2022-11-03T16:56:49.416Z,11.50
2022-11-03T16:59:23.440Z,11.60
2022-11-03T17:01:53.015Z,11.50
2022-11-03T17:04:21.305Z,11.50
2022-11-03T17:06:49.374Z,11.50
2022-11-03T17:09:17.436Z,11.60
2022-11-03T17:11:45.479Z,11.50
2022-11-03T17:14:14.281Z,11.50
2022-11-03T17:16:45.548Z,11.60
2022-11-03T17:19:16.140Z,11.50
2022-11-03T17:21:44.471Z,11.50
2022-11-03T17:24:13.227Z,11.50
2022-11-03T17:26:58.204Z,11.50
2022-11-03T17:29:35.910Z,11.50
2022-11-03T17:32:08.432Z,11.60
2022-11-03T17:34:39.497Z,11.60
2022-11-03T17:37:07.732Z,11.50
2022-11-03T17:39:37.978Z,11.50
2022-11-03T17:42:26.034Z,11.60
2022-11-03T17:44:56.779Z,11.60
2022-11-03T17:47:25.754Z,11.70
2022-11-03T17:49:55.235Z,11.70
2022-11-03T17:52:28.691Z,11.60
2022-11-03T17:54:59.746Z,11.70
2022-11-03T17:57:28.653Z,11.70
2022-11-03T18:00:00.771Z,11.70
2022-11-03T18:02:33.077Z,11.70
2022-11-03T18:05:26.616Z,11.70
2022-11-03T18:07:56.271Z,11.80
2022-11-03T18:10:28.358Z,11.70
2022-11-03T18:13:17.612Z,11.70
2022-11-03T18:15:49.283Z,11.70
2022-11-03T18:18:26.194Z,11.80
2022-11-03T18:20:56.533Z,11.80
2022-11-03T18:23:26.842Z,11.80
2022-11-03T18:25:55.434Z,11.70
2022-11-03T18:28:24.041Z,11.70
2022-11-03T18:30:55.969Z,11.70
2022-11-03T18:33:27.002Z,11.70
2022-11-03T18:35:57.795Z,11.60
2022-11-03T18:38:27.228Z,11.60
2022-11-03T18:40:55.834Z,11.60
2022-11-03T18:43:26.433Z,11.50
2022-11-03T18:45:54.447Z,11.50
2022-11-03T18:48:24.002Z,11.50
2022-11-03T18:50:54.951Z,11.40
2022-11-03T18:53:27.164Z,11.40
2022-11-03T18:56:00.846Z,11.30
2022-11-03T18:58:29.092Z,11.30
2022-11-03T19:00:57.483Z,11.30
2022-11-03T19:03:25.585Z,11.30
2022-11-03T19:05:54.518Z,11.30
2022-11-03T19:08:29.391Z,11.30
2022-11-03T19:11:03.530Z,11.30
2022-11-03T19:13:36.017Z,11.30
2022-11-03T19:16:14.273Z,11.40
2022-11-03T19:18:44.159Z,11.40
2022-11-03T19:21:15.282Z,11.40
2022-11-03T19:23:47.938Z,11.50
2022-11-03T19:26:23.521Z,11.50
2022-11-03T19:28:57.349Z,11.50
2022-11-03T19:31:32.189Z,11.50
2022-11-03T19:34:01.068Z,11.50
2022-11-03T19:36:31.456Z,11.40
2022-11-03T19:39:01.473Z,11.40
2022-11-03T19:41:47.423Z,11.40
2022-11-03T19:44:15.579Z,11.50
2022-11-03T19:46:43.962Z,11.40
2022-11-03T19:49:15.178Z,11.40
2022-11-03T19:51:43.740Z,11.30
2022-11-03T19:54:19.160Z,11.30
2022-11-03T19:56:47.497Z,11.30
2022-11-03T19:59:17.691Z,11.30
2022-11-03T20:01:45.854Z,11.20
2022-11-03T20:04:13.997Z,11.20
2022-11-03T20:06:42.034Z,11.30
2022-11-03T20:09:18.299Z,11.30
2022-11-03T20:11:46.766Z,11.30
2022-11-03T20:14:21.796Z,11.40
2022-11-03T20:16:49.844Z,11.40
2022-11-03T20:19:18.040Z,11.40
2022-11-03T20:21:46.255Z,11.40
2022-11-03T20:24:19.500Z,11.40
2022-11-03T20:26:47.701Z,11.40
2022-11-03T20:29:16.871Z,11.40
2022-11-03T20:31:46.185Z,11.40
2022-11-03T20:34:15.948Z,11.40
2022-11-03T20:36:44.754Z,11.40
2022-11-03T20:39:15.921Z,11.40
2022-11-03T20:41:51.462Z,11.40
2022-11-03T20:44:19.595Z,11.40
2022-11-03T20:46:47.742Z,11.50
2022-11-03T20:49:16.021Z,11.50
2022-11-03T20:51:47.391Z,11.50
2022-11-03T20:54:19.412Z,11.40
2022-11-03T20:56:49.582Z,11.40
2022-11-03T20:59:21.272Z,11.40
2022-11-03T21:01:50.173Z,11.40
2022-11-03T21:04:21.268Z,11.40
2022-11-03T21:06:50.339Z,11.40
2022-11-03T21:09:20.363Z,11.40
2022-11-03T21:11:51.903Z,11.40
2022-11-03T21:14:25.449Z,11.40
2022-11-03T21:17:11.456Z,11.30
2022-11-03T21:19:56.452Z,11.30
2022-11-03T21:25:23.407Z,11.30
2022-11-03T21:27:54.661Z,11.30
2022-11-03T21:30:24.108Z,11.20
2022-11-03T21:32:52.285Z,11.20
2022-11-03T21:35:22.936Z,11.20
2022-11-03T21:37:51.057Z,11.20
2022-11-03T21:40:19.301Z,11.20
2022-11-03T21:43:04.700Z,11.20
2022-11-03T21:45:34.738Z,11.30
2022-11-03T21:48:20.851Z,11.30
2022-11-03T21:50:49.480Z,11.30
2022-11-03T21:53:17.540Z,11.40
2022-11-03T21:55:49.433Z,11.40
2022-11-03T21:58:17.676Z,11.50
2022-11-03T22:00:47.620Z,11.40
2022-11-03T22:03:15.979Z,11.40
2022-11-03T22:05:44.206Z,11.40
2022-11-03T22:08:12.303Z,11.40
2022-11-03T22:10:40.926Z,11.30
2022-11-03T22:13:09.560Z,11.20
2022-11-03T22:15:55.813Z,11.10
2022-11-03T22:18:25.365Z,11.00
2022-11-03T22:21:11.306Z,10.90
2022-11-03T22:23:57.093Z,10.80
2022-11-03T22:26:42.648Z,10.80
2022-11-03T22:29:28.174Z,10.80
2022-11-03T22:31:56.385Z,10.70
2022-11-03T22:34:43.511Z,10.70
2022-11-03T22:37:11.552Z,10.70
2022-11-03T22:39:57.124Z,10.70
2022-11-03T22:45:33.327Z,10.70
2022-11-03T22:48:04.679Z,10.80
2022-11-03T22:50:34.147Z,10.60
2022-11-03T22:53:23.060Z,10.60
2022-11-03T22:55:50.220Z,10.50
2022-11-03T22:58:18.273Z,10.50
2022-11-03T23:00:47.535Z,10.40
2022-11-03T23:03:15.801Z,10.40
2022-11-03T23:05:45.281Z,10.40
2022-11-03T23:08:13.331Z,10.40
2022-11-03T23:10:41.390Z,10.30
2022-11-03T23:13:09.915Z,10.30
2022-11-03T23:15:43.537Z,10.20
2022-11-03T23:18:28.979Z,10.10
2022-11-03T23:21:07.476Z,10.10
2022-11-03T23:23:53.902Z,10.20
2022-11-03T23:26:26.485Z,10.20
2022-11-03T23:28:55.003Z,10.20
2022-11-03T23:31:23.150Z,10.20
2022-11-03T23:33:51.280Z,10.20
2022-11-03T23:36:20.965Z,10.30
2022-11-03T23:38:49.049Z,10.20
2022-11-03T23:41:20.295Z,10.20
2022-11-03T23:43:48.875Z,10.10
2022-11-03T23:46:37.896Z,10.00
2022-11-03T23:49:07.472Z,9.90
2022-11-03T23:51:38.605Z,9.80
2022-11-03T23:54:09.684Z,9.80
2022-11-03T23:56:58.305Z,9.80
2022-11-03T23:59:27.732Z,9.80
